createdAt,value
2023-01-06T00:02:10.409Z,7.80
2023-01-06T00:04:37.239Z,7.80
2023-01-06T00:07:04.089Z,7.80
2023-01-06T00:09:30.857Z,7.80
2023-01-06T00:11:57.702Z,7.80
2023-01-06T00:14:24.420Z,7.90
2023-01-06T00:16:52.476Z,8.00
2023-01-06T00:19:19.370Z,8.00
2023-01-06T00:21:46.096Z,8.00
2023-01-06T00:24:13.108Z,8.00
2023-01-06T00:26:39.830Z,7.90
2023-01-06T00:29:06.588Z,8.00
2023-01-06T00:31:33.313Z,8.00
2023-01-06T00:34:01.405Z,7.90
2023-01-06T00:36:28.137Z,7.90
2023-01-06T00:38:54.926Z,7.90
2023-01-06T00:41:21.928Z,7.90
2023-01-06T00:43:48.649Z,7.90
2023-01-06T00:46:15.439Z,7.90
2023-01-06T00:48:52.367Z,7.90
2023-01-06T00:51:30.316Z,7.90
2023-01-06T00:53:59.130Z,7.80
2023-01-06T00:56:25.839Z,7.80
2023-01-06T00:58:52.686Z,7.80
2023-01-06T01:01:19.478Z,7.70
2023-01-06T01:03:46.269Z,7.80
2023-01-06T01:06:13.076Z,7.80
2023-01-06T01:08:41.142Z,7.70
2023-01-06T01:11:09.753Z,7.70
2023-01-06T01:13:36.707Z,7.70
2023-01-06T01:16:04.629Z,7.70
2023-01-06T01:18:31.401Z,7.70
2023-01-06T01:20:58.280Z,7.70
2023-01-06T01:23:25.226Z,7.80
2023-01-06T01:25:56.799Z,7.70
2023-01-06T01:28:23.703Z,7.80
2023-01-06T01:30:50.437Z,7.70
2023-01-06T01:33:17.336Z,7.70
2023-01-06T01:35:44.107Z,7.60
2023-01-06T01:38:10.845Z,7.70
2023-01-06T01:40:37.579Z,7.70
2023-01-06T01:43:06.513Z,7.70
2023-01-06T01:45:33.429Z,7.70
2023-01-06T01:48:04.383Z,7.70
2023-01-06T01:50:38.824Z,7.60
2023-01-06T01:53:08.953Z,7.60
2023-01-06T01:55:37.305Z,7.60
2023-01-06T01:58:08.975Z,7.60
2023-01-06T02:00:36.540Z,7.60
2023-01-06T02:03:05.016Z,7.60
2023-01-06T02:05:33.857Z,7.60
2023-01-06T02:08:05.379Z,7.50
2023-01-06T02:10:32.208Z,7.50
2023-01-06T02:13:00.408Z,7.60
2023-01-06T02:15:31.590Z,7.60
2023-01-06T02:18:30.802Z,7.50
2023-01-06T02:21:14.643Z,7.60
2023-01-06T02:24:13.592Z,7.60
2023-01-06T02:27:17.050Z,7.30
2023-01-06T02:30:31.757Z,7.30
2023-01-06T02:33:10.443Z,7.40
2023-01-06T02:36:04.752Z,7.30
2023-01-06T02:38:42.748Z,7.40
2023-01-06T02:41:19.084Z,7.40
2023-01-06T02:43:56.449Z,7.40
2023-01-06T02:46:35.305Z,7.40
2023-01-06T02:49:12.800Z,7.40
2023-01-06T02:51:48.813Z,7.40
2023-01-06T02:54:25.142Z,7.40
2023-01-06T02:56:57.119Z,7.40
2023-01-06T02:59:30.011Z,7.30
2023-01-06T03:02:00.131Z,7.30
2023-01-06T03:04:33.780Z,7.30
2023-01-06T03:07:02.483Z,7.30
2023-01-06T03:09:33.150Z,7.30
2023-01-06T03:12:02.601Z,7.00
2023-01-06T03:14:32.846Z,7.10
2023-01-06T03:16:59.588Z,7.10
2023-01-06T03:19:27.831Z,7.10
2023-01-06T03:21:55.645Z,7.20
2023-01-06T03:24:22.507Z,7.20
2023-01-06T03:26:49.434Z,7.10
2023-01-06T03:29:18.196Z,7.10
2023-01-06T03:31:53.551Z,7.10
2023-01-06T03:34:36.285Z,6.90
2023-01-06T03:37:10.627Z,6.90
2023-01-06T03:39:46.672Z,7.00
2023-01-06T03:42:35.990Z,7.10
2023-01-06T03:45:14.549Z,6.90
2023-01-06T03:47:50.374Z,6.90
2023-01-06T03:50:23.936Z,7.00
2023-01-06T03:53:08.502Z,6.90
2023-01-06T03:55:38.207Z,7.00
2023-01-06T03:58:07.538Z,7.00
2023-01-06T04:00:37.194Z,7.00
2023-01-06T04:03:07.444Z,7.00
2023-01-06T04:05:35.593Z,7.00
2023-01-06T04:08:02.571Z,6.90
2023-01-06T04:10:29.271Z,6.90
2023-01-06T04:12:56.013Z,6.90
2023-01-06T04:15:24.922Z,6.90
2023-01-06T04:17:52.556Z,6.90
2023-01-06T04:20:22.794Z,6.90
2023-01-06T04:22:52.721Z,6.90
2023-01-06T04:25:19.443Z,6.80
2023-01-06T04:27:46.267Z,6.80
2023-01-06T04:30:13.152Z,6.70
2023-01-06T04:32:39.887Z,6.60
2023-01-06T04:35:07.776Z,6.50
2023-01-06T04:37:35.198Z,6.60
2023-01-06T04:40:03.707Z,6.60
2023-01-06T04:42:30.501Z,6.60
2023-01-06T04:44:57.207Z,6.70
2023-01-06T04:47:23.897Z,6.80
2023-01-06T04:49:50.601Z,6.80
2023-01-06T04:52:17.282Z,6.80
2023-01-06T04:54:43.988Z,6.90
2023-01-06T04:57:12.036Z,6.80
2023-01-06T04:59:38.731Z,6.80
2023-01-06T05:02:05.453Z,6.90
2023-01-06T05:04:46.587Z,6.80
2023-01-06T05:07:14.018Z,6.90
2023-01-06T05:09:40.707Z,6.90
2023-01-06T05:12:07.953Z,6.80
2023-01-06T05:14:36.007Z,6.90
2023-01-06T05:17:03.800Z,6.90
2023-01-06T05:19:30.538Z,6.90
2023-01-06T05:21:57.242Z,6.90
2023-01-06T05:24:23.928Z,6.80
2023-01-06T05:26:50.651Z,6.90
2023-01-06T05:29:17.326Z,6.90
2023-01-06T05:31:45.415Z,6.90
2023-01-06T05:34:12.412Z,6.90
2023-01-06T05:36:39.184Z,6.90
2023-01-06T05:39:05.935Z,7.00
2023-01-06T05:41:32.639Z,6.80
2023-01-06T05:43:59.335Z,6.80
2023-01-06T05:46:26.035Z,6.80
2023-01-06T05:48:54.085Z,6.80
2023-01-06T05:51:20.855Z,6.70
2023-01-06T05:53:48.590Z,6.80
2023-01-06T05:56:17.635Z,6.80
2023-01-06T05:58:45.631Z,6.80
2023-01-06T06:01:16.927Z,6.70
2023-01-06T06:03:44.212Z,6.70
2023-01-06T06:06:12.582Z,6.70
2023-01-06T06:08:39.420Z,6.60
2023-01-06T06:11:08.085Z,6.70
2023-01-06T06:13:35.166Z,6.70
2023-01-06T06:16:06.709Z,6.70
2023-01-06T06:18:33.486Z,6.70
2023-01-06T06:21:01.018Z,6.70
2023-01-06T06:23:29.116Z,6.80
2023-01-06T06:25:55.967Z,6.70
2023-01-06T06:28:22.743Z,6.70
2023-01-06T06:30:49.527Z,6.60
2023-01-06T06:33:16.226Z,6.60
2023-01-06T06:35:42.938Z,6.60
2023-01-06T06:38:09.623Z,6.60
2023-01-06T06:40:37.638Z,6.60
2023-01-06T06:43:04.380Z,6.50
2023-01-06T06:45:31.108Z,6.50
2023-01-06T06:47:57.817Z,6.60
2023-01-06T06:50:24.520Z,6.60
2023-01-06T06:52:51.227Z,6.60
2023-01-06T06:55:18.055Z,6.50
2023-01-06T06:57:46.084Z,6.50
2023-01-06T07:00:13.939Z,6.60
2023-01-06T07:02:40.647Z,6.60
2023-01-06T07:05:07.755Z,6.60
2023-01-06T07:07:34.532Z,6.60
2023-01-06T07:10:02.571Z,6.60
2023-01-06T07:12:29.242Z,6.50
2023-01-06T07:14:57.311Z,6.50
2023-01-06T07:17:26.573Z,6.50
2023-01-06T07:19:53.297Z,6.60
2023-01-06T07:22:20.403Z,6.50
2023-01-06T07:24:47.099Z,6.50
2023-01-06T07:27:13.847Z,6.50
2023-01-06T07:29:40.575Z,6.40
2023-01-06T07:32:10.194Z,6.40
2023-01-06T07:34:37.067Z,6.40
2023-01-06T07:37:03.742Z,6.40
2023-01-06T07:39:30.460Z,6.40
2023-01-06T07:41:57.135Z,6.40
2023-01-06T07:44:23.856Z,6.40
2023-01-06T07:46:50.526Z,6.50
2023-01-06T07:49:18.679Z,6.50
2023-01-06T07:51:45.362Z,6.50
2023-01-06T07:54:12.236Z,6.40
2023-01-06T07:56:38.915Z,6.30
2023-01-06T07:59:05.712Z,6.30
2023-01-06T08:01:32.639Z,6.40
2023-01-06T08:03:59.505Z,6.50
2023-01-06T08:06:27.991Z,6.50
2023-01-06T08:08:54.882Z,6.60
2023-01-06T08:11:21.611Z,6.60
2023-01-06T08:13:48.322Z,6.60
2023-01-06T08:16:15.089Z,6.60
2023-01-06T08:18:41.835Z,6.60
2023-01-06T08:21:10.581Z,6.60
2023-01-06T08:23:38.764Z,6.60
2023-01-06T08:26:07.225Z,6.60
2023-01-06T08:28:34.113Z,6.60
2023-01-06T08:31:01.053Z,6.60
2023-01-06T08:33:28.257Z,6.60
2023-01-06T08:35:58.849Z,6.60
2023-01-06T08:38:25.584Z,6.60
2023-01-06T08:40:53.732Z,6.70
2023-01-06T08:43:20.469Z,6.70
2023-01-06T08:45:47.414Z,6.80
2023-01-06T08:48:14.543Z,6.80
2023-01-06T08:50:42.347Z,6.80
2023-01-06T08:53:09.682Z,6.80
2023-01-06T08:55:38.796Z,6.90
2023-01-06T08:58:07.848Z,6.90
2023-01-06T09:00:34.920Z,7.00
2023-01-06T09:03:02.601Z,7.10
2023-01-06T09:05:29.973Z,7.10
2023-01-06T09:07:56.793Z,7.10
2023-01-06T09:10:23.888Z,7.20
2023-01-06T09:12:50.873Z,7.20
2023-01-06T09:15:19.042Z,7.30
2023-01-06T09:17:45.808Z,7.30
2023-01-06T09:20:12.580Z,7.30
2023-01-06T09:22:39.291Z,7.40
2023-01-06T09:25:06.962Z,7.40
2023-01-06T09:27:33.694Z,7.40
2023-01-06T09:30:00.364Z,7.40
2023-01-06T09:32:28.441Z,7.40
2023-01-06T09:34:55.109Z,7.40
2023-01-06T09:37:21.830Z,7.50
2023-01-06T09:39:48.552Z,7.50
2023-01-06T09:42:43.659Z,7.50
2023-01-06T09:45:16.498Z,7.50
2023-01-06T09:47:49.302Z,7.50
2023-01-06T09:50:25.281Z,7.50
2023-01-06T09:52:57.360Z,7.60
2023-01-06T09:55:30.954Z,7.60
2023-01-06T09:58:03.426Z,7.60
2023-01-06T10:00:36.782Z,7.60
2023-01-06T10:03:05.598Z,7.60
2023-01-06T10:05:41.592Z,7.60
2023-01-06T10:08:17.047Z,7.70
2023-01-06T10:10:54.107Z,7.70
2023-01-06T10:13:39.152Z,7.70
2023-01-06T10:16:14.612Z,7.70
2023-01-06T10:18:53.034Z,7.80
2023-01-06T10:21:29.879Z,7.80
2023-01-06T10:24:14.241Z,7.80
2023-01-06T10:26:44.167Z,7.80
2023-01-06T10:29:15.805Z,7.80
2023-01-06T10:31:45.071Z,7.80
2023-01-06T10:34:20.754Z,7.80
2023-01-06T10:36:52.117Z,7.90
2023-01-06T10:39:22.477Z,7.90
2023-01-06T10:41:58.229Z,7.90
2023-01-06T10:44:24.932Z,7.90
2023-01-06T10:46:51.764Z,7.90
2023-01-06T10:49:20.115Z,8.00
2023-01-06T10:51:53.718Z,8.00
2023-01-06T10:54:24.767Z,8.00
2023-01-06T10:56:55.313Z,8.00
2023-01-06T10:59:22.044Z,8.00
2023-01-06T11:01:50.645Z,8.10
2023-01-06T11:04:19.134Z,8.10
2023-01-06T11:06:50.063Z,8.10
2023-01-06T11:09:38.066Z,8.10
2023-01-06T11:12:11.585Z,8.10
2023-01-06T11:14:39.246Z,8.20
2023-01-06T11:17:08.860Z,8.20
2023-01-06T11:19:38.958Z,8.20
2023-01-06T11:22:24.944Z,8.20
2023-01-06T11:24:53.955Z,8.20
2023-01-06T11:27:20.664Z,8.20
2023-01-06T11:29:47.409Z,8.30
2023-01-06T11:32:17.674Z,8.30
2023-01-06T11:34:52.430Z,8.30
2023-01-06T11:37:30.780Z,8.30
2023-01-06T11:40:05.298Z,8.30
2023-01-06T11:42:37.875Z,8.40
2023-01-06T11:45:05.771Z,8.40
2023-01-06T11:47:32.509Z,8.40
2023-01-06T11:50:01.431Z,8.40
2023-01-06T11:52:29.417Z,8.40
2023-01-06T11:55:18.932Z,8.40
2023-01-06T11:57:54.610Z,8.40
2023-01-06T12:00:34.129Z,8.40
2023-01-06T12:03:08.578Z,8.50
2023-01-06T12:05:46.741Z,8.50
2023-01-06T12:08:19.738Z,8.50
2023-01-06T12:10:52.616Z,8.50
2023-01-06T12:13:19.747Z,8.60
2023-01-06T12:15:52.511Z,8.60
2023-01-06T12:18:26.355Z,8.60
2023-01-06T12:20:56.808Z,8.60
2023-01-06T12:23:27.818Z,8.60
2023-01-06T12:25:57.624Z,8.60
2023-01-06T12:28:27.629Z,8.60
2023-01-06T12:31:01.245Z,8.60
2023-01-06T12:33:35.776Z,8.60
2023-01-06T12:36:10.114Z,8.60
2023-01-06T12:38:46.804Z,8.60
2023-01-06T12:41:17.322Z,8.60
2023-01-06T12:43:52.991Z,8.60
2023-01-06T12:46:26.118Z,8.60
2023-01-06T12:48:56.993Z,8.50
2023-01-06T12:51:31.207Z,8.50
2023-01-06T12:54:02.158Z,8.50
2023-01-06T12:56:48.023Z,8.50
2023-01-06T12:59:23.605Z,8.50
2023-01-06T13:01:56.130Z,8.50
2023-01-06T13:04:47.568Z,8.50
2023-01-06T13:07:24.115Z,8.50
2023-01-06T13:10:04.201Z,8.50
2023-01-06T13:12:50.752Z,8.50
2023-01-06T13:15:21.777Z,8.50
2023-01-06T13:17:54.979Z,8.50
2023-01-06T13:20:27.711Z,8.50
2023-01-06T13:23:06.578Z,8.50
2023-01-06T13:26:05.862Z,8.50
2023-01-06T13:28:44.014Z,8.40
2023-01-06T13:31:30.700Z,8.50
2023-01-06T13:34:19.014Z,8.50
2023-01-06T13:37:09.005Z,8.50
2023-01-06T13:39:40.653Z,8.50
2023-01-06T13:42:13.851Z,8.50
2023-01-06T13:44:41.598Z,8.50
2023-01-06T13:47:14.386Z,8.50
2023-01-06T13:49:42.095Z,8.50
2023-01-06T13:52:17.367Z,8.50
2023-01-06T13:55:00.891Z,8.50
2023-01-06T13:57:33.570Z,8.50
2023-01-06T14:00:17.839Z,8.50
2023-01-06T14:03:01.181Z,8.50
2023-01-06T14:05:51.144Z,8.50
2023-01-06T14:08:20.186Z,8.50
2023-01-06T14:10:55.420Z,8.50
2023-01-06T14:13:24.669Z,8.50
2023-01-06T14:15:54.387Z,8.50
2023-01-06T14:18:31.409Z,8.50
2023-01-06T14:21:03.660Z,8.50
2023-01-06T14:23:30.947Z,8.50
2023-01-06T14:25:59.139Z,8.50
2023-01-06T14:28:28.289Z,8.60
2023-01-06T14:31:31.542Z,8.60
2023-01-06T14:33:59.912Z,8.60
2023-01-06T14:36:29.487Z,8.60
2023-01-06T14:39:00.874Z,8.60
2023-01-06T14:41:31.618Z,8.60
2023-01-06T14:44:03.378Z,8.60
2023-01-06T14:46:33.621Z,8.60
2023-01-06T14:49:02.520Z,8.60
2023-01-06T14:51:30.623Z,8.60
2023-01-06T14:54:00.887Z,8.60
2023-01-06T14:56:30.526Z,8.60
2023-01-06T14:59:11.389Z,8.60
2023-01-06T15:01:39.815Z,8.60
2023-01-06T15:04:19.624Z,8.60
2023-01-06T15:07:00.227Z,8.70
2023-01-06T15:09:27.042Z,8.60
2023-01-06T15:11:55.506Z,8.60
2023-01-06T15:14:26.928Z,8.60
2023-01-06T15:16:55.695Z,8.60
2023-01-06T15:19:23.451Z,8.60
2023-01-06T15:21:52.007Z,8.60
2023-01-06T15:24:20.656Z,8.60
2023-01-06T15:26:48.541Z,8.60
2023-01-06T15:29:18.048Z,8.60
2023-01-06T15:31:46.656Z,8.60
2023-01-06T15:34:16.965Z,8.60
2023-01-06T15:36:45.776Z,8.60
2023-01-06T15:39:14.764Z,8.60
2023-01-06T15:41:42.068Z,8.60
2023-01-06T15:44:26.804Z,8.60
2023-01-06T15:46:57.936Z,8.60
2023-01-06T15:49:28.541Z,8.60
2023-01-06T15:51:57.742Z,8.60
2023-01-06T15:54:27.904Z,8.60
2023-01-06T15:56:55.692Z,8.60
2023-01-06T15:59:24.001Z,8.60
2023-01-06T16:01:53.890Z,8.60
2023-01-06T16:04:22.142Z,8.60
2023-01-06T16:06:49.190Z,8.60
2023-01-06T16:09:32.275Z,8.60
2023-01-06T16:12:11.287Z,8.60
2023-01-06T16:14:40.679Z,8.60
2023-01-06T16:17:09.595Z,8.60
2023-01-06T16:19:46.337Z,8.60
2023-01-06T16:22:34.440Z,8.60
2023-01-06T16:25:06.486Z,8.70
2023-01-06T16:27:33.695Z,8.60
2023-01-06T16:30:20.374Z,8.70
2023-01-06T16:32:47.645Z,8.60
2023-01-06T16:35:16.373Z,8.60
2023-01-06T16:37:44.250Z,8.60
2023-01-06T16:40:13.068Z,8.70
2023-01-06T16:42:39.891Z,8.70
2023-01-06T16:45:13.307Z,8.70
2023-01-06T16:47:40.366Z,8.60
2023-01-06T16:50:19.699Z,8.60
2023-01-06T16:52:49.832Z,8.70
2023-01-06T16:55:18.929Z,8.70
2023-01-06T16:57:48.323Z,8.60
2023-01-06T17:00:18.498Z,8.60
2023-01-06T17:02:45.865Z,8.60
2023-01-06T17:05:22.427Z,8.70
2023-01-06T17:07:49.396Z,8.60
2023-01-06T17:10:19.028Z,8.60
2023-01-06T17:12:52.797Z,8.60
2023-01-06T17:15:20.845Z,8.70
2023-01-06T17:17:47.533Z,8.60
2023-01-06T17:20:15.662Z,8.60
2023-01-06T17:22:42.875Z,8.60
2023-01-06T17:25:13.597Z,8.60
2023-01-06T17:27:43.769Z,8.60
2023-01-06T17:30:16.827Z,8.60
2023-01-06T17:32:45.047Z,8.60
2023-01-06T17:35:24.423Z,8.60
2023-01-06T17:37:51.284Z,8.60
2023-01-06T17:40:21.887Z,8.60
2023-01-06T17:42:59.181Z,8.60
2023-01-06T17:45:27.253Z,8.60
2023-01-06T17:47:56.599Z,8.60
2023-01-06T17:50:28.863Z,8.60
2023-01-06T17:53:11.431Z,8.60
2023-01-06T17:55:45.062Z,8.60
2023-01-06T17:58:15.295Z,8.60
2023-01-06T18:00:42.566Z,8.60
2023-01-06T18:03:17.774Z,8.60
2023-01-06T18:06:07.107Z,8.60
2023-01-06T18:08:37.418Z,8.60
2023-01-06T18:11:25.594Z,8.60
2023-01-06T18:13:53.106Z,8.60
2023-01-06T18:16:28.242Z,8.60
2023-01-06T18:19:04.426Z,8.60
2023-01-06T18:21:36.314Z,8.60
2023-01-06T18:24:15.587Z,8.60
2023-01-06T18:26:50.041Z,8.60
2023-01-06T18:29:20.642Z,8.60
2023-01-06T18:31:50.176Z,8.60
2023-01-06T18:34:30.212Z,8.60
2023-01-06T18:36:59.080Z,8.60
2023-01-06T18:39:28.006Z,8.60
2023-01-06T18:42:12.939Z,8.60
2023-01-06T18:44:39.806Z,8.60
2023-01-06T18:47:16.782Z,8.60
2023-01-06T18:49:45.826Z,8.60
2023-01-06T18:52:38.214Z,8.60
2023-01-06T18:55:24.841Z,8.60
2023-01-06T18:57:58.230Z,8.60
2023-01-06T19:00:34.432Z,8.60
2023-01-06T19:03:23.421Z,8.60
2023-01-06T19:05:53.754Z,8.60
2023-01-06T19:08:31.525Z,8.60
2023-01-06T19:10:58.547Z,8.60
2023-01-06T19:13:29.909Z,8.60
2023-01-06T19:16:02.215Z,8.60
2023-01-06T19:18:32.291Z,8.60
2023-01-06T19:21:03.062Z,8.60
2023-01-06T19:23:32.166Z,8.60
2023-01-06T19:26:04.710Z,8.60
2023-01-06T19:28:34.133Z,8.60
2023-01-06T19:31:01.807Z,8.60
2023-01-06T19:33:38.782Z,8.60
2023-01-06T19:36:39.380Z,8.60
2023-01-06T19:39:25.155Z,8.60
2023-01-06T19:41:53.870Z,8.60
2023-01-06T19:44:28.340Z,8.60
2023-01-06T19:46:55.085Z,8.60
2023-01-06T19:49:25.010Z,8.60
2023-01-06T19:51:54.332Z,8.60
2023-01-06T19:54:26.869Z,8.60
2023-01-06T19:56:54.956Z,8.60
2023-01-06T19:59:24.877Z,8.60
2023-01-06T20:01:59.198Z,8.60
2023-01-06T20:04:27.334Z,8.60
2023-01-06T20:06:55.448Z,8.60
2023-01-06T20:09:22.273Z,8.60
2023-01-06T20:11:49.574Z,8.60
2023-01-06T20:14:16.325Z,8.60
2023-01-06T20:16:43.137Z,8.60
2023-01-06T20:19:10.039Z,8.60
2023-01-06T20:21:36.774Z,8.60
2023-01-06T20:24:05.826Z,8.60
2023-01-06T20:26:32.598Z,8.60
2023-01-06T20:28:59.367Z,8.60
2023-01-06T20:31:26.114Z,8.60
2023-01-06T20:33:52.900Z,8.60
2023-01-06T20:36:20.059Z,8.60
2023-01-06T20:38:46.935Z,8.60
2023-01-06T20:41:15.181Z,8.60
2023-01-06T20:43:42.261Z,8.60
2023-01-06T20:46:09.059Z,8.60
2023-01-06T20:48:35.846Z,8.60
2023-01-06T20:51:05.863Z,8.60
2023-01-06T20:53:32.573Z,8.60
2023-01-06T20:55:59.291Z,8.60
2023-01-06T20:58:30.071Z,8.60
2023-01-06T21:00:58.115Z,8.60
2023-01-06T21:03:24.832Z,8.60
2023-01-06T21:05:51.613Z,8.60
2023-01-06T21:08:18.387Z,8.60
2023-01-06T21:10:45.108Z,8.60
2023-01-06T21:13:11.819Z,8.60
2023-01-06T21:15:39.828Z,8.50
2023-01-06T21:18:06.561Z,8.60
2023-01-06T21:20:33.278Z,8.60
2023-01-06T21:22:59.985Z,8.60
2023-01-06T21:25:26.699Z,8.50
2023-01-06T21:27:53.395Z,8.50
2023-01-06T21:30:20.090Z,8.50
2023-01-06T21:32:48.135Z,8.50
2023-01-06T21:35:14.990Z,8.50
2023-01-06T21:37:41.707Z,8.50
2023-01-06T21:40:09.740Z,8.50
2023-01-06T21:42:36.635Z,8.50
2023-01-06T21:45:03.820Z,8.50
2023-01-06T21:47:30.508Z,8.50
2023-01-06T21:49:58.579Z,8.50
2023-01-06T21:52:25.325Z,8.50
2023-01-06T21:54:52.083Z,8.50
2023-01-06T21:57:18.910Z,8.50
2023-01-06T21:59:45.609Z,8.60
2023-01-06T22:02:14.571Z,8.50
2023-01-06T22:04:41.382Z,8.50
2023-01-06T22:07:09.587Z,8.50
2023-01-06T22:09:38.501Z,8.50
2023-01-06T22:12:08.419Z,8.50
2023-01-06T22:14:35.611Z,8.50
2023-01-06T22:17:03.027Z,8.50
2023-01-06T22:19:30.393Z,8.50
2023-01-06T22:21:59.552Z,8.50
2023-01-06T22:24:30.446Z,8.50
2023-01-06T22:26:57.184Z,8.50
2023-01-06T22:29:23.898Z,8.50
2023-01-06T22:31:50.611Z,8.50
2023-01-06T22:34:17.495Z,8.50
2023-01-06T22:36:44.269Z,8.50
2023-01-06T22:39:10.996Z,8.50
2023-01-06T22:41:39.056Z,8.50
2023-01-06T22:44:05.840Z,8.50
2023-01-06T22:46:32.620Z,8.50
2023-01-06T22:48:59.367Z,8.40
2023-01-06T22:51:26.116Z,8.40
2023-01-06T22:53:52.847Z,8.40
2023-01-06T22:56:19.549Z,8.40
2023-01-06T22:58:47.590Z,8.40
2023-01-06T23:01:14.577Z,8.50
2023-01-06T23:03:41.427Z,8.40
2023-01-06T23:06:10.150Z,8.40
2023-01-06T23:08:42.923Z,8.40
2023-01-06T23:11:18.507Z,8.40
2023-01-06T23:13:47.092Z,8.40
2023-01-06T23:16:16.387Z,8.50
2023-01-06T23:18:44.985Z,8.40
2023-01-06T23:21:13.482Z,8.40
2023-01-06T23:23:42.011Z,8.50
2023-01-06T23:26:10.584Z,8.50
2023-01-06T23:28:37.896Z,8.50
2023-01-06T23:31:08.000Z,8.40
2023-01-06T23:33:37.640Z,8.40
2023-01-06T23:36:05.090Z,8.40
2023-01-06T23:38:32.031Z,8.40
2023-01-06T23:41:03.436Z,8.40
2023-01-06T23:43:32.308Z,8.40
2023-01-06T23:46:01.232Z,8.40
2023-01-06T23:48:30.884Z,8.40
2023-01-06T23:50:58.144Z,8.50
2023-01-06T23:53:25.258Z,8.40
2023-01-06T23:55:56.794Z,8.40
2023-01-06T23:58:23.605Z,8.50
